createdAt,value
2018-03-25T00:00:29.347Z,67.38
2018-03-25T00:01:35.072Z,67.32
2018-03-25T00:02:40.814Z,67.29
2018-03-25T00:03:47.400Z,67.27
2018-03-25T00:04:53.147Z,67.27
2018-03-25T00:05:58.926Z,67.26
2018-03-25T00:07:04.647Z,67.24
2018-03-25T00:08:10.555Z,67.28
2018-03-25T00:09:16.306Z,67.38
2018-03-25T00:10:22.012Z,67.49
2018-03-25T00:11:27.721Z,67.47
2018-03-25T00:12:33.449Z,67.41
2018-03-25T00:13:39.282Z,67.40
2018-03-25T00:14:45.169Z,67.41
2018-03-25T00:15:50.961Z,67.47
2018-03-25T00:16:56.680Z,67.47
2018-03-25T00:18:03.158Z,67.45
2018-03-25T00:19:08.848Z,67.43
2018-03-25T00:20:15.429Z,67.46
2018-03-25T00:21:21.942Z,67.46
2018-03-25T00:22:27.648Z,67.44
2018-03-25T00:23:33.376Z,67.42
2018-03-25T00:24:39.908Z,67.40
2018-03-25T00:25:45.645Z,67.34
2018-03-25T00:26:51.362Z,67.31
2018-03-25T00:27:57.229Z,67.26
2018-03-25T00:29:02.947Z,67.20
2018-03-25T00:30:08.697Z,67.19
2018-03-25T00:31:14.423Z,67.23
2018-03-25T00:32:20.130Z,67.28
2018-03-25T00:33:26.663Z,67.26
2018-03-25T00:34:32.373Z,67.27
2018-03-25T00:35:37.526Z,67.50
2018-03-25T00:36:43.260Z,67.30
2018-03-25T00:37:49.055Z,67.43
2018-03-25T00:38:54.748Z,67.37
2018-03-25T00:40:01.222Z,67.40
2018-03-25T00:41:07.699Z,67.50
2018-03-25T00:42:14.213Z,67.50
2018-03-25T00:43:19.586Z,67.52
2018-03-25T00:44:26.092Z,67.54
2018-03-25T00:45:31.984Z,67.58
2018-03-25T00:46:38.506Z,67.63
2018-03-25T00:47:44.375Z,67.62
2018-03-25T00:48:51.033Z,67.62
2018-03-25T00:49:56.836Z,67.60
2018-03-25T00:51:02.688Z,67.59
2018-03-25T00:52:08.401Z,67.60
2018-03-25T00:53:14.120Z,67.63
2018-03-25T00:54:20.629Z,67.67
2018-03-25T00:55:26.345Z,67.68
2018-03-25T00:56:32.085Z,67.71
2018-03-25T00:57:37.805Z,67.72
2018-03-25T00:58:44.111Z,67.72
2018-03-25T00:59:49.822Z,67.71
2018-03-25T01:00:56.452Z,67.67
2018-03-25T01:02:02.984Z,67.70
2018-03-25T01:03:08.715Z,67.69
2018-03-25T01:04:14.450Z,67.71
2018-03-25T01:05:20.205Z,67.72
2018-03-25T01:06:26.007Z,67.71
2018-03-25T01:07:31.761Z,67.73
2018-03-25T01:08:37.469Z,67.73
2018-03-25T01:09:43.955Z,67.73
2018-03-25T01:10:49.657Z,67.73
2018-03-25T01:11:55.400Z,67.77
2018-03-25T01:13:01.932Z,67.78
2018-03-25T01:14:08.548Z,67.79
2018-03-25T01:15:14.301Z,68.06
2018-03-25T01:16:19.331Z,68.12
2018-03-25T01:17:25.052Z,68.12
2018-03-25T01:18:30.769Z,68.12
2018-03-25T01:19:37.244Z,68.14
2018-03-25T01:20:43.728Z,68.16
2018-03-25T01:21:49.437Z,68.24
2018-03-25T01:22:55.921Z,68.52
2018-03-25T01:24:01.628Z,68.85
2018-03-25T01:25:08.096Z,69.05
2018-03-25T01:26:14.592Z,69.04
2018-03-25T01:27:20.310Z,69.15
2018-03-25T01:28:26.021Z,69.20
2018-03-25T01:29:31.725Z,69.50
2018-03-25T01:30:37.422Z,69.71
2018-03-25T01:31:43.160Z,69.85
2018-03-25T01:32:49.634Z,69.96
2018-03-25T01:33:55.336Z,69.83
2018-03-25T01:35:01.815Z,69.77
2018-03-25T01:36:08.695Z,69.64
2018-03-25T01:37:14.436Z,69.51
2018-03-25T01:38:20.920Z,69.43
2018-03-25T01:39:26.617Z,69.37
2018-03-25T01:40:33.079Z,69.30
2018-03-25T01:41:38.784Z,69.21
2018-03-25T01:42:44.500Z,69.16
2018-03-25T01:43:50.205Z,69.12
2018-03-25T01:44:56.678Z,69.12
2018-03-25T01:46:02.384Z,69.14
2018-03-25T01:47:08.091Z,69.36
2018-03-25T01:48:13.822Z,69.32
2018-03-25T01:49:19.520Z,69.63
2018-03-25T01:50:26.006Z,69.50
2018-03-25T01:51:31.717Z,69.46
2018-03-25T01:52:38.181Z,69.43
2018-03-25T01:53:43.910Z,69.38
2018-03-25T01:54:50.389Z,69.35
2018-03-25T01:55:56.136Z,69.29
2018-03-25T01:57:01.847Z,69.25
2018-03-25T01:58:07.535Z,69.24
2018-03-25T01:59:13.267Z,69.21
2018-03-25T02:00:18.999Z,69.38
2018-03-25T02:01:24.704Z,69.34
2018-03-25T02:02:31.179Z,69.44
2018-03-25T02:03:36.891Z,69.45
2018-03-25T02:04:42.619Z,69.68
2018-03-25T02:05:48.372Z,69.81
2018-03-25T02:06:55.047Z,69.85
2018-03-25T02:08:01.635Z,70.29
2018-03-25T02:09:08.368Z,70.24
2018-03-25T02:10:14.102Z,70.30
2018-03-25T02:11:20.077Z,70.24
2018-03-25T02:12:26.548Z,70.39
2018-03-25T02:13:32.281Z,70.38
2018-03-25T02:14:38.133Z,70.53
2018-03-25T02:15:43.861Z,70.50
2018-03-25T02:16:50.500Z,70.67
2018-03-25T02:17:56.783Z,70.71
2018-03-25T02:19:02.535Z,70.80
2018-03-25T02:20:08.241Z,70.63
2018-03-25T02:21:13.966Z,70.57
2018-03-25T02:22:19.676Z,70.48
2018-03-25T02:23:25.401Z,70.46
2018-03-25T02:24:31.097Z,70.41
2018-03-25T02:25:36.797Z,70.36
2018-03-25T02:26:42.538Z,70.52
2018-03-25T02:27:48.236Z,70.60
2018-03-25T02:28:54.712Z,70.69
2018-03-25T02:30:00.422Z,70.78
2018-03-25T02:31:06.568Z,70.65
2018-03-25T02:32:13.626Z,70.73
2018-03-25T02:33:19.333Z,70.63
2018-03-25T02:34:25.045Z,70.94
2018-03-25T02:35:31.520Z,70.80
2018-03-25T02:36:37.219Z,70.70
2018-03-25T02:37:42.952Z,70.86
2018-03-25T02:38:48.655Z,70.80
2018-03-25T02:39:54.367Z,70.70
2018-03-25T02:41:00.896Z,70.76
2018-03-25T02:42:06.597Z,70.63
2018-03-25T02:43:12.337Z,70.56
2018-03-25T02:44:18.040Z,70.87
2018-03-25T02:45:24.577Z,71.05
2018-03-25T02:46:30.444Z,71.05
2018-03-25T02:47:36.904Z,70.90
2018-03-25T02:48:43.685Z,70.81
2018-03-25T02:49:49.397Z,70.70
2018-03-25T02:50:55.884Z,70.63
2018-03-25T02:52:01.627Z,70.62
2018-03-25T02:53:07.353Z,70.61
2018-03-25T02:54:13.093Z,70.74
2018-03-25T02:55:19.566Z,70.77
2018-03-25T02:56:26.037Z,70.73
2018-03-25T02:57:31.736Z,70.96
2018-03-25T02:58:38.214Z,71.02
2018-03-25T02:59:43.942Z,71.33
2018-03-25T03:00:49.666Z,71.36
2018-03-25T03:01:56.898Z,71.40
2018-03-25T03:03:02.607Z,71.37
2018-03-25T03:04:09.084Z,71.18
2018-03-25T03:05:14.814Z,71.05
2018-03-25T03:06:20.516Z,70.89
2018-03-25T03:07:26.230Z,70.77
2018-03-25T03:08:32.127Z,70.67
2018-03-25T03:09:38.608Z,70.61
2018-03-25T03:10:44.321Z,70.52
2018-03-25T03:11:50.807Z,70.49
2018-03-25T03:12:56.721Z,70.61
2018-03-25T03:14:03.392Z,70.59
2018-03-25T03:15:09.111Z,70.47
2018-03-25T03:16:14.836Z,70.43
2018-03-25T03:17:20.576Z,70.38
2018-03-25T03:18:26.301Z,70.36
2018-03-25T03:19:32.000Z,70.36
2018-03-25T03:20:38.478Z,70.40
2018-03-25T03:21:44.210Z,70.36
2018-03-25T03:22:49.936Z,70.36
2018-03-25T03:23:56.582Z,70.30
2018-03-25T03:25:02.294Z,70.30
2018-03-25T03:26:08.014Z,70.27
2018-03-25T03:27:13.744Z,70.23
2018-03-25T03:28:19.472Z,70.20
2018-03-25T03:29:25.182Z,70.17
2018-03-25T03:30:31.094Z,70.14
2018-03-25T03:31:36.800Z,70.23
2018-03-25T03:32:42.516Z,70.24
2018-03-25T03:33:49.001Z,70.51
2018-03-25T03:34:54.717Z,70.56
2018-03-25T03:36:01.186Z,70.47
2018-03-25T03:37:07.657Z,70.56
2018-03-25T03:38:13.393Z,70.76
2018-03-25T03:39:19.100Z,70.82
2018-03-25T03:40:24.869Z,70.80
2018-03-25T03:41:31.340Z,70.70
2018-03-25T03:42:37.045Z,70.60
2018-03-25T03:43:42.796Z,70.56
2018-03-25T03:44:49.335Z,70.59
2018-03-25T03:45:55.040Z,70.65
2018-03-25T03:47:00.749Z,70.81
2018-03-25T03:48:07.323Z,70.80
2018-03-25T03:49:13.050Z,70.88
2018-03-25T03:50:19.533Z,70.90
2018-03-25T03:51:25.232Z,70.93
2018-03-25T03:52:30.932Z,71.05
2018-03-25T03:53:36.635Z,71.00
2018-03-25T03:54:42.364Z,71.03
2018-03-25T03:55:48.854Z,71.03
2018-03-25T03:56:54.563Z,70.92
2018-03-25T03:58:01.065Z,70.74
2018-03-25T03:59:06.780Z,70.58
2018-03-25T04:00:13.260Z,70.45
2018-03-25T04:01:18.965Z,70.38
2018-03-25T04:02:25.438Z,70.31
2018-03-25T04:03:31.148Z,70.25
2018-03-25T04:04:36.867Z,70.19
2018-03-25T04:05:42.596Z,70.15
2018-03-25T04:06:48.458Z,70.10
2018-03-25T04:07:54.176Z,70.05
2018-03-25T04:08:59.921Z,70.05
2018-03-25T04:10:05.629Z,70.03
2018-03-25T04:11:11.358Z,70.03
2018-03-25T04:12:17.853Z,70.04
2018-03-25T04:13:23.560Z,70.03
2018-03-25T04:14:30.100Z,70.02
2018-03-25T04:15:35.876Z,70.02
2018-03-25T04:16:41.613Z,70.01
2018-03-25T04:17:47.317Z,70.02
2018-03-25T04:18:53.466Z,70.01
2018-03-25T04:19:59.172Z,70.01
2018-03-25T04:21:04.687Z,70.03
2018-03-25T04:22:10.408Z,70.05
2018-03-25T04:23:16.125Z,70.05
2018-03-25T04:24:21.826Z,70.05
2018-03-25T04:25:27.540Z,70.13
2018-03-25T04:26:33.256Z,70.23
2018-03-25T04:27:38.975Z,70.40
2018-03-25T04:28:44.677Z,70.47
2018-03-25T04:29:50.380Z,70.49
2018-03-25T04:30:56.856Z,70.44
2018-03-25T04:32:02.569Z,70.37
2018-03-25T04:33:08.293Z,70.32
2018-03-25T04:34:14.005Z,70.25
2018-03-25T04:35:19.723Z,70.18
2018-03-25T04:36:25.458Z,70.18
2018-03-25T04:37:31.152Z,70.20
2018-03-25T04:38:36.901Z,70.28
2018-03-25T04:39:42.604Z,70.41
2018-03-25T04:40:48.300Z,70.60
2018-03-25T04:41:54.822Z,70.65
2018-03-25T04:43:00.518Z,70.69
2018-03-25T04:44:07.004Z,70.81
2018-03-25T04:45:12.707Z,70.91
2018-03-25T04:46:19.188Z,70.94
2018-03-25T04:47:24.886Z,70.93
2018-03-25T04:48:30.433Z,71.12
2018-03-25T04:49:36.934Z,71.12
2018-03-25T04:50:42.857Z,71.01
2018-03-25T04:51:49.423Z,70.99
2018-03-25T04:52:56.051Z,71.00
2018-03-25T04:54:01.823Z,71.01
2018-03-25T04:55:07.562Z,71.02
2018-03-25T04:56:13.256Z,71.22
2018-03-25T04:57:18.971Z,71.35
2018-03-25T04:58:24.676Z,71.44
2018-03-25T04:59:30.420Z,71.59
2018-03-25T05:00:36.150Z,71.48
2018-03-25T05:01:42.615Z,71.28
2018-03-25T05:02:48.321Z,71.12
2018-03-25T05:03:54.054Z,70.95
2018-03-25T05:04:59.757Z,70.85
2018-03-25T05:06:05.158Z,70.76
2018-03-25T05:07:10.868Z,70.71
2018-03-25T05:08:16.577Z,70.68
2018-03-25T05:09:22.297Z,70.64
2018-03-25T05:10:28.044Z,70.62
2018-03-25T05:11:33.783Z,70.59
2018-03-25T05:12:39.523Z,70.58
2018-03-25T05:13:45.234Z,70.54
2018-03-25T05:14:50.928Z,70.49
2018-03-25T05:15:56.650Z,70.47
2018-03-25T05:17:02.364Z,70.44
2018-03-25T05:18:08.841Z,70.43
2018-03-25T05:19:14.570Z,70.39
2018-03-25T05:20:21.044Z,70.35
2018-03-25T05:21:26.789Z,70.33
2018-03-25T05:22:32.509Z,70.28
2018-03-25T05:23:39.281Z,70.23
2018-03-25T05:24:44.989Z,70.19
2018-03-25T05:25:51.456Z,70.17
2018-03-25T05:26:57.950Z,70.15
2018-03-25T05:28:03.704Z,70.11
2018-03-25T05:29:10.350Z,70.07
2018-03-25T05:30:16.061Z,70.02
2018-03-25T05:31:22.601Z,69.97
2018-03-25T05:32:28.297Z,69.91
2018-03-25T05:33:34.037Z,69.86
2018-03-25T05:34:39.755Z,69.85
2018-03-25T05:35:45.453Z,69.77
2018-03-25T05:36:51.159Z,69.67
2018-03-25T05:37:56.870Z,69.62
2018-03-25T05:39:02.610Z,69.56
2018-03-25T05:40:09.097Z,69.50
2018-03-25T05:41:15.554Z,69.47
2018-03-25T05:42:21.252Z,69.52
2018-03-25T05:43:26.981Z,69.53
2018-03-25T05:44:32.740Z,69.56
2018-03-25T05:45:38.458Z,69.51
2018-03-25T05:46:44.159Z,69.57
2018-03-25T05:47:49.902Z,69.61
2018-03-25T05:48:55.601Z,69.76
2018-03-25T05:50:01.334Z,69.75
2018-03-25T05:51:07.024Z,69.76
2018-03-25T05:52:12.749Z,69.80
2018-03-25T05:53:18.460Z,69.79
2018-03-25T05:54:24.160Z,69.74
2018-03-25T05:55:29.904Z,69.73
2018-03-25T05:56:35.420Z,69.58
2018-03-25T05:57:41.150Z,69.36
2018-03-25T05:58:46.851Z,69.33
2018-03-25T05:59:52.643Z,69.25
2018-03-25T06:00:58.398Z,69.14
2018-03-25T06:02:04.108Z,69.06
2018-03-25T06:03:10.592Z,69.01
2018-03-25T06:04:16.402Z,68.91
2018-03-25T06:05:22.118Z,68.84
2018-03-25T06:06:27.840Z,68.77
2018-03-25T06:07:33.440Z,68.66
2018-03-25T06:08:39.141Z,68.57
2018-03-25T06:09:45.614Z,68.49
2018-03-25T06:10:51.334Z,68.34
2018-03-25T06:11:57.072Z,68.22
2018-03-25T06:13:02.792Z,67.95
2018-03-25T06:14:08.518Z,67.62
2018-03-25T06:15:14.215Z,67.30
2018-03-25T06:16:20.698Z,67.05
2018-03-25T06:17:26.430Z,66.80
2018-03-25T06:18:32.133Z,66.57
2018-03-25T06:19:37.836Z,66.34
2018-03-25T06:20:43.548Z,66.17
2018-03-25T06:21:50.020Z,66.02
2018-03-25T06:22:55.750Z,65.83
2018-03-25T06:24:02.220Z,65.67
2018-03-25T06:25:07.971Z,65.58
2018-03-25T06:26:14.621Z,65.59
2018-03-25T06:27:20.321Z,65.58
2018-03-25T06:28:26.812Z,65.60
2018-03-25T06:29:32.202Z,65.57
2018-03-25T06:30:37.912Z,65.72
2018-03-25T06:31:43.416Z,65.86
2018-03-25T06:32:49.897Z,66.15
2018-03-25T06:33:55.679Z,66.37
2018-03-25T06:35:01.378Z,66.49
2018-03-25T06:36:07.090Z,66.52
2018-03-25T06:37:13.559Z,66.54
2018-03-25T06:38:19.368Z,66.41
2018-03-25T06:39:25.874Z,66.44
2018-03-25T06:40:31.580Z,66.31
2018-03-25T06:41:37.286Z,66.25
2018-03-25T06:42:43.095Z,66.15
2018-03-25T06:43:48.807Z,65.99
2018-03-25T06:44:54.537Z,65.83
2018-03-25T06:46:00.249Z,65.63
2018-03-25T06:47:05.633Z,65.46
2018-03-25T06:48:12.109Z,65.33
2018-03-25T06:49:18.159Z,65.14
2018-03-25T06:50:24.509Z,65.05
2018-03-25T06:51:30.333Z,64.88
2018-03-25T06:52:36.815Z,64.80
2018-03-25T06:53:42.525Z,64.55
2018-03-25T06:54:49.000Z,64.24
2018-03-25T06:55:55.497Z,64.14
2018-03-25T06:57:01.200Z,63.96
2018-03-25T06:58:07.678Z,63.77
2018-03-25T06:59:13.380Z,63.70
2018-03-25T07:00:19.857Z,63.65
2018-03-25T07:01:25.593Z,63.58
2018-03-25T07:02:32.064Z,63.52
2018-03-25T07:03:37.780Z,63.42
2018-03-25T07:04:43.478Z,63.26
2018-03-25T07:05:49.190Z,63.10
2018-03-25T07:06:54.925Z,62.97
2018-03-25T07:08:00.643Z,62.78
2018-03-25T07:09:06.829Z,62.68
2018-03-25T07:10:12.545Z,62.50
2018-03-25T07:11:19.017Z,62.38
2018-03-25T07:12:24.764Z,62.25
2018-03-25T07:13:30.473Z,61.88
2018-03-25T07:14:37.161Z,61.75
2018-03-25T07:15:42.872Z,61.64
2018-03-25T07:16:49.369Z,61.50
2018-03-25T07:17:55.112Z,61.23
2018-03-25T07:19:00.816Z,61.06
2018-03-25T07:20:07.292Z,60.95
2018-03-25T07:21:13.572Z,60.77
2018-03-25T07:22:19.294Z,60.45
2018-03-25T07:23:25.785Z,60.33
2018-03-25T07:24:31.493Z,60.20
2018-03-25T07:25:37.208Z,60.07
2018-03-25T07:26:43.685Z,59.96
2018-03-25T07:27:49.478Z,59.81
2018-03-25T07:28:55.200Z,59.57
2018-03-25T07:30:00.900Z,59.43
2018-03-25T07:31:07.483Z,59.21
2018-03-25T07:32:13.192Z,58.96
2018-03-25T07:33:19.665Z,58.72
2018-03-25T07:34:25.396Z,58.53
2018-03-25T07:35:31.978Z,58.18
2018-03-25T07:36:37.675Z,57.91
2018-03-25T07:37:43.420Z,57.62
2018-03-25T07:38:49.312Z,57.16
2018-03-25T07:39:55.059Z,56.67
2018-03-25T07:41:00.438Z,56.03
2018-03-25T07:42:05.939Z,54.85
2018-03-25T07:43:11.646Z,53.89
2018-03-25T07:44:18.293Z,53.00
2018-03-25T07:45:24.827Z,52.15
2018-03-25T07:46:30.545Z,51.20
2018-03-25T07:47:36.269Z,49.59
2018-03-25T07:48:41.993Z,48.73
2018-03-25T07:49:47.739Z,48.05
2018-03-25T07:50:53.481Z,47.40
2018-03-25T07:51:59.214Z,46.35
2018-03-25T07:53:05.705Z,45.91
2018-03-25T07:54:11.439Z,45.29
2018-03-25T07:55:17.172Z,44.88
2018-03-25T07:56:22.925Z,44.12
2018-03-25T07:57:28.655Z,43.31
2018-03-25T07:58:34.384Z,42.55
2018-03-25T07:59:40.107Z,41.82
2018-03-25T08:00:46.584Z,40.86
2018-03-25T08:01:52.342Z,40.22
2018-03-25T08:02:58.158Z,39.41
2018-03-25T08:04:04.647Z,39.23
2018-03-25T08:05:10.420Z,39.13
2018-03-25T08:06:16.907Z,38.64
2018-03-25T08:07:23.475Z,38.49
2018-03-25T08:08:29.955Z,37.75
2018-03-25T08:09:35.694Z,36.79
2018-03-25T08:10:41.422Z,36.21
2018-03-25T08:11:47.182Z,35.64
2018-03-25T08:12:52.966Z,35.24
2018-03-25T08:13:58.742Z,34.92
2018-03-25T08:15:04.889Z,34.80
2018-03-25T08:16:10.294Z,34.62
2018-03-25T08:17:16.288Z,34.34
2018-03-25T08:18:22.485Z,34.35
2018-03-25T08:19:29.002Z,34.39
2018-03-25T08:20:34.728Z,34.13
2018-03-25T08:21:40.450Z,33.46
2018-03-25T08:22:46.937Z,33.20
2018-03-25T08:23:52.688Z,32.94
2018-03-25T08:24:58.419Z,32.83
2018-03-25T08:26:04.157Z,33.30
2018-03-25T08:27:09.868Z,33.35
2018-03-25T08:28:15.618Z,32.77
2018-03-25T08:29:21.362Z,32.67
2018-03-25T08:30:28.087Z,32.33
2018-03-25T08:31:33.851Z,32.10
2018-03-25T08:32:39.567Z,32.23
2018-03-25T08:33:45.285Z,31.99
2018-03-25T08:34:51.771Z,31.95
2018-03-25T08:35:57.489Z,31.82
2018-03-25T08:37:03.280Z,31.84
2018-03-25T08:38:09.784Z,31.73
2018-03-25T08:39:15.580Z,31.67
2018-03-25T08:40:22.145Z,31.34
2018-03-25T08:41:28.761Z,30.95
2018-03-25T08:42:34.479Z,30.81
2018-03-25T08:43:40.204Z,30.57
2018-03-25T08:44:46.686Z,29.74
2018-03-25T08:45:52.441Z,29.27
2018-03-25T08:46:58.509Z,29.37
2018-03-25T08:48:04.331Z,29.40
2018-03-25T08:49:10.166Z,29.12
2018-03-25T08:50:15.891Z,28.92
2018-03-25T08:51:21.734Z,28.81
2018-03-25T08:52:26.943Z,28.86
2018-03-25T08:53:33.425Z,28.84
2018-03-25T08:54:39.227Z,28.64
2018-03-25T08:55:45.716Z,28.53
2018-03-25T08:56:51.475Z,28.46
2018-03-25T08:57:57.017Z,28.66
2018-03-25T08:59:03.199Z,28.93
2018-03-25T09:00:10.698Z,29.03
2018-03-25T09:01:17.470Z,29.14
2018-03-25T09:02:24.133Z,29.18
2018-03-25T09:03:30.772Z,29.20
2018-03-25T09:04:36.501Z,29.29
2018-03-25T09:05:42.231Z,29.10
2018-03-25T09:06:48.049Z,29.37
2018-03-25T09:07:53.985Z,29.34
2018-03-25T09:08:59.933Z,29.01
2018-03-25T09:10:05.800Z,28.50
2018-03-25T09:11:11.673Z,27.98
2018-03-25T09:12:17.398Z,27.75
2018-03-25T09:13:23.333Z,27.73
2018-03-25T09:14:29.098Z,27.52
2018-03-25T09:15:39.266Z,27.64
2018-03-25T09:16:45.249Z,27.99
2018-03-25T09:17:51.319Z,27.84
2018-03-25T09:18:57.993Z,27.58
2018-03-25T09:20:03.944Z,27.12
2018-03-25T09:21:09.677Z,26.45
2018-03-25T09:22:15.733Z,26.62
2018-03-25T09:23:21.471Z,26.97
2018-03-25T09:24:28.010Z,26.96
2018-03-25T09:25:33.740Z,26.79
2018-03-25T09:26:39.454Z,26.44
2018-03-25T09:27:46.095Z,26.39
2018-03-25T09:28:53.311Z,26.15
2018-03-25T09:29:59.061Z,25.50
2018-03-25T09:31:04.924Z,25.23
2018-03-25T09:32:10.646Z,25.24
2018-03-25T09:33:16.362Z,24.91
2018-03-25T09:34:22.144Z,24.78
2018-03-25T09:35:27.897Z,24.88
2018-03-25T09:36:33.631Z,24.80
2018-03-25T09:37:39.372Z,24.54
2018-03-25T09:38:45.165Z,24.44
2018-03-25T09:39:51.654Z,24.03
2018-03-25T09:40:57.385Z,24.07
2018-03-25T09:42:03.122Z,24.25
2018-03-25T09:43:08.846Z,24.29
2018-03-25T09:44:15.344Z,24.35
2018-03-25T09:45:21.090Z,24.48
2018-03-25T09:46:26.849Z,24.74
2018-03-25T09:47:32.561Z,25.01
2018-03-25T09:48:38.421Z,25.07
2018-03-25T09:49:44.167Z,25.09
2018-03-25T09:50:49.949Z,25.00
2018-03-25T09:51:58.262Z,24.75
2018-03-25T09:53:04.842Z,24.61
2018-03-25T09:54:10.572Z,24.59
2018-03-25T09:55:17.459Z,24.69
2018-03-25T09:56:23.157Z,24.69
2018-03-25T09:57:28.929Z,24.38
2018-03-25T09:58:35.760Z,24.39
2018-03-25T09:59:42.101Z,24.36
2018-03-25T10:00:50.071Z,24.26
2018-03-25T10:02:02.164Z,23.69
2018-03-25T10:03:15.649Z,23.47
2018-03-25T10:04:22.227Z,23.36
2018-03-25T10:05:28.017Z,23.62
2018-03-25T10:06:33.749Z,23.70
2018-03-25T10:07:40.668Z,23.86
2018-03-25T10:08:46.634Z,23.86
2018-03-25T10:09:52.465Z,23.66
2018-03-25T10:10:58.187Z,23.84
2018-03-25T10:12:05.028Z,24.04
2018-03-25T10:13:10.945Z,24.25
2018-03-25T10:14:16.706Z,24.17
2018-03-25T10:15:22.585Z,24.30
2018-03-25T10:16:29.250Z,24.45
2018-03-25T10:17:35.789Z,24.57
2018-03-25T10:18:42.049Z,24.59
2018-03-25T10:19:48.027Z,24.76
2018-03-25T10:20:53.865Z,25.00
2018-03-25T10:21:59.653Z,25.03
2018-03-25T10:23:05.597Z,25.10
2018-03-25T10:24:11.353Z,25.06
2018-03-25T10:25:17.342Z,25.38
2018-03-25T10:26:23.882Z,25.35
2018-03-25T10:27:30.632Z,25.42
2018-03-25T10:28:36.506Z,25.83
2018-03-25T10:29:42.554Z,25.87
2018-03-25T10:30:48.102Z,26.16
2018-03-25T10:31:53.885Z,26.51
2018-03-25T10:32:59.920Z,26.77
2018-03-25T10:34:05.746Z,26.83
2018-03-25T10:35:11.575Z,27.15
2018-03-25T10:36:19.936Z,27.48
2018-03-25T10:37:25.966Z,27.82
2018-03-25T10:38:31.723Z,27.93
2018-03-25T10:39:37.244Z,28.01
2018-03-25T10:40:42.994Z,28.06
2018-03-25T10:41:48.734Z,28.39
2018-03-25T10:42:54.557Z,28.55
2018-03-25T10:44:00.310Z,28.70
2018-03-25T10:45:06.121Z,29.07
2018-03-25T10:46:12.897Z,29.36
2018-03-25T10:47:18.673Z,29.71
2018-03-25T10:48:24.481Z,29.83
2018-03-25T10:49:30.718Z,30.13
2018-03-25T10:50:36.710Z,30.32
2018-03-25T10:51:42.502Z,30.45
2018-03-25T10:52:49.083Z,30.50
2018-03-25T10:53:55.703Z,30.69
2018-03-25T10:55:01.670Z,31.32
2018-03-25T10:56:07.693Z,31.52
2018-03-25T10:57:13.982Z,31.72
2018-03-25T10:58:19.920Z,31.99
2018-03-25T10:59:26.017Z,32.40
2018-03-25T11:00:33.145Z,32.64
2018-03-25T11:01:39.321Z,32.80
2018-03-25T11:02:45.858Z,32.96
2018-03-25T11:03:51.748Z,32.95
2018-03-25T11:04:58.454Z,33.10
2018-03-25T11:06:04.407Z,33.46
2018-03-25T11:07:10.864Z,34.00
2018-03-25T11:08:17.035Z,34.38
2018-03-25T11:09:23.089Z,34.77
2018-03-25T11:10:29.419Z,34.90
2018-03-25T11:11:35.570Z,34.94
2018-03-25T11:12:41.504Z,35.12
2018-03-25T11:13:47.464Z,35.41
2018-03-25T11:14:54.454Z,35.20
2018-03-25T11:16:00.583Z,35.40
2018-03-25T11:17:06.792Z,35.66
2018-03-25T11:18:12.941Z,35.74
2018-03-25T11:19:20.111Z,35.83
2018-03-25T11:20:27.151Z,35.90
2018-03-25T11:21:34.012Z,36.06
2018-03-25T11:22:40.047Z,36.43
2018-03-25T11:23:46.167Z,36.71
2018-03-25T11:24:53.029Z,36.84
2018-03-25T11:26:00.088Z,37.15
2018-03-25T11:27:06.100Z,37.35
2018-03-25T11:28:12.233Z,37.73
2018-03-25T11:29:19.119Z,37.52
2018-03-25T11:30:25.106Z,37.44
2018-03-25T11:31:32.403Z,37.51
2018-03-25T11:32:38.577Z,37.76
2018-03-25T11:33:44.627Z,37.84
2018-03-25T11:34:50.681Z,38.16
2018-03-25T11:35:57.850Z,38.38
2018-03-25T11:37:03.898Z,39.00
2018-03-25T11:38:10.775Z,39.25
2018-03-25T11:39:16.815Z,39.62
2018-03-25T11:40:23.885Z,40.01
2018-03-25T11:41:31.205Z,39.92
2018-03-25T11:42:37.227Z,39.95
2018-03-25T11:43:43.974Z,40.15
2018-03-25T11:44:49.895Z,40.26
2018-03-25T11:45:56.770Z,40.04
2018-03-25T11:47:02.939Z,40.16
2018-03-25T11:48:08.991Z,40.09
2018-03-25T11:49:15.880Z,39.93
2018-03-25T11:50:21.916Z,39.63
2018-03-25T11:51:27.948Z,39.39
2018-03-25T11:52:33.897Z,39.28
2018-03-25T11:53:40.048Z,38.91
2018-03-25T11:54:46.056Z,38.87
2018-03-25T11:55:52.967Z,38.88
2018-03-25T11:56:58.998Z,38.84
2018-03-25T11:58:05.107Z,38.70
2018-03-25T11:59:11.732Z,38.83
2018-03-25T12:00:17.771Z,38.82
2018-03-25T12:01:23.910Z,38.81
2018-03-25T12:02:30.689Z,38.73
2018-03-25T12:03:36.724Z,38.67
2018-03-25T12:04:42.461Z,38.74
2018-03-25T12:05:49.015Z,38.68
2018-03-25T12:06:55.744Z,38.67
2018-03-25T12:08:01.653Z,38.63
2018-03-25T12:09:07.494Z,38.75
2018-03-25T12:10:13.397Z,38.74
2018-03-25T12:11:19.325Z,38.66
2018-03-25T12:12:25.429Z,38.67
2018-03-25T12:13:31.207Z,38.84
2018-03-25T12:14:38.219Z,38.73
2018-03-25T12:15:44.803Z,38.69
2018-03-25T12:16:50.594Z,38.64
2018-03-25T12:17:56.695Z,38.80
2018-03-25T12:19:02.500Z,38.58
2018-03-25T12:20:08.485Z,38.51
2018-03-25T12:21:14.534Z,38.51
2018-03-25T12:22:21.391Z,38.46
2018-03-25T12:23:27.463Z,38.19
2018-03-25T12:24:33.395Z,38.24
2018-03-25T12:25:39.496Z,38.31
2018-03-25T12:26:46.003Z,38.36
2018-03-25T12:27:51.865Z,38.32
2018-03-25T12:28:58.579Z,38.37
2018-03-25T12:30:04.512Z,38.45
2018-03-25T12:31:10.415Z,38.42
2018-03-25T12:32:16.514Z,38.57
2018-03-25T12:33:22.600Z,38.89
2018-03-25T12:34:31.680Z,38.98
2018-03-25T12:35:38.441Z,38.82
2018-03-25T12:36:45.123Z,38.88
2018-03-25T12:37:51.796Z,38.78
2018-03-25T12:38:57.583Z,38.66
2018-03-25T12:40:03.307Z,38.58
2018-03-25T12:41:09.090Z,38.46
2018-03-25T12:42:14.974Z,38.39
2018-03-25T12:43:21.153Z,38.42
2018-03-25T12:44:27.433Z,38.41
2018-03-25T12:45:33.848Z,38.28
2018-03-25T12:46:39.593Z,38.34
2018-03-25T12:47:45.210Z,38.44
2018-03-25T12:48:51.244Z,38.30
2018-03-25T12:49:57.943Z,38.09
2018-03-25T12:51:03.900Z,38.12
2018-03-25T12:52:09.826Z,38.31
2018-03-25T12:53:16.208Z,38.67
2018-03-25T12:54:22.144Z,38.69
2018-03-25T12:55:27.941Z,38.65
2018-03-25T12:56:34.452Z,38.64
2018-03-25T12:57:40.204Z,38.61
2018-03-25T12:58:45.971Z,38.59
2018-03-25T12:59:51.915Z,38.89
2018-03-25T13:00:57.708Z,39.05
2018-03-25T13:02:03.634Z,39.08
2018-03-25T13:03:10.434Z,39.07
2018-03-25T13:04:16.202Z,39.14
2018-03-25T13:05:24.043Z,39.19
2018-03-25T13:06:29.935Z,39.18
2018-03-25T13:07:35.750Z,39.05
2018-03-25T13:08:41.758Z,39.35
2018-03-25T13:09:47.735Z,39.16
2018-03-25T13:10:53.547Z,39.26
2018-03-25T13:12:00.053Z,39.28
2018-03-25T13:13:06.382Z,39.46
2018-03-25T13:14:12.633Z,39.41
2018-03-25T13:15:18.682Z,39.33
2018-03-25T13:16:24.421Z,37.68
2018-03-25T13:17:30.368Z,37.31
2018-03-25T13:18:36.318Z,37.60
2018-03-25T13:19:42.436Z,37.67
2018-03-25T13:20:48.404Z,37.83
2018-03-25T13:21:54.357Z,37.96
2018-03-25T13:23:00.368Z,38.09
2018-03-25T13:24:07.051Z,38.21
2018-03-25T13:25:13.531Z,38.30
2018-03-25T13:26:19.652Z,38.48
2018-03-25T13:27:26.176Z,38.58
2018-03-25T13:28:32.252Z,38.65
2018-03-25T13:29:38.232Z,38.59
2018-03-25T13:30:44.098Z,38.60
2018-03-25T13:31:50.211Z,38.71
2018-03-25T13:32:56.772Z,38.81
2018-03-25T13:34:04.113Z,38.89
2018-03-25T13:35:11.254Z,38.69
2018-03-25T13:36:18.925Z,38.58
2018-03-25T13:37:24.703Z,38.51
2018-03-25T13:38:30.509Z,38.75
2018-03-25T13:39:36.864Z,38.90
2018-03-25T13:40:43.633Z,39.13
2018-03-25T13:41:49.678Z,39.17
2018-03-25T13:42:56.319Z,39.18
2018-03-25T13:44:03.196Z,39.11
2018-03-25T13:45:09.544Z,39.03
2018-03-25T13:46:16.720Z,38.92
2018-03-25T13:47:23.456Z,38.89
2018-03-25T13:48:29.511Z,38.93
2018-03-25T13:49:37.302Z,38.95
2018-03-25T13:50:43.204Z,38.97
2018-03-25T13:51:50.179Z,39.37
2018-03-25T13:52:57.573Z,40.01
2018-03-25T13:54:03.492Z,40.23
2018-03-25T13:55:09.405Z,40.43
2018-03-25T13:56:16.366Z,40.54
2018-03-25T13:57:23.749Z,40.54
2018-03-25T13:58:30.249Z,40.13
2018-03-25T13:59:36.008Z,40.08
2018-03-25T14:00:41.990Z,40.08
2018-03-25T14:01:48.850Z,40.19
2018-03-25T14:02:55.655Z,40.64
2018-03-25T14:04:01.476Z,40.78
2018-03-25T14:05:08.085Z,40.97
2018-03-25T14:06:13.902Z,40.90
2018-03-25T14:07:19.861Z,40.95
2018-03-25T14:08:25.647Z,41.12
2018-03-25T14:09:31.365Z,40.98
2018-03-25T14:10:37.480Z,40.73